Latest Weather Observations for Witchcliffe

IDW60801

Issued at 7:32 am WST Sunday 14 February 2016 (issued every 30 minutes, with the page automatically refreshed every 10 minutes)

About weather observations | Map of weather stations | Latest weather observations for WA | Other Formats
Station Details ID: 009746 Name: WITCHCLIFFE Lat: -34.03 Lon: 115.10 Height: 80.0 m
Data from the previous 72 hours. | See also: Recent months at Witchcliffe
Date/Time
WST
Temp
°C
App
Temp
°C
Dew
Point
Rel
Hum
%
Delta-T
°C
Wind Press
QNH
hPa
Press
MSL
hPa
Rain
since 9 am
mm
Dir
 
Spd
km/h
Gust
km/h
Spd
kts
Gust
kts
14/07:30am 16.5 15.0 10.4 67 3.2 SE 9 13 5 7 1025.3 1025.0 0.0
14/07:00am 14.9 14.4 9.5 70 2.8 SE 2 6 1 3 1025.2 1024.9 0.0
14/06:30am 14.1 12.6 9.3 73 2.5 SSE 7 11 4 6 1025.1 1024.8 0.0
14/06:00am 13.8 12.4 9.0 73 2.4 SE 6 11 3 6 1024.6 1024.3 0.0
14/05:30am 13.9 12.3 8.7 71 2.6 SSE 7 9 4 5 1024.4 1024.1 0.0
14/05:00am 14.3 12.7 8.9 70 2.7 SSE 7 11 4 6 1024.3 1024.0 0.0
14/04:30am 14.4 12.4 8.6 68 2.9 SE 9 13 5 7 1023.9 1023.6 0.0
14/04:00am 14.6 12.2 8.8 68 2.9 SE 11 15 6 8 1023.8 1023.5 0.0
14/03:30am 14.1 12.4 8.5 69 2.8 SE 7 11 4 6 1023.7 1023.4 0.0
14/03:00am 14.3 11.9 8.5 68 2.9 SE 11 15 6 8 1023.8 1023.5 0.0
14/02:30am 14.4 12.4 8.6 68 2.9 SSE 9 13 5 7 1023.9 1023.6 0.0
14/02:00am 15.0 12.6 8.7 66 3.2 SE 11 15 6 8 1024.0 1023.7 0.0
14/01:30am 15.4 13.1 8.9 65 3.3 SE 11 24 6 13 1024.1 1023.8 0.0
14/01:00am 14.7 12.8 8.9 68 2.9 SE 9 13 5 7 1024.2 1023.9 0.0
14/12:30am 14.8 13.4 9.0 68 3.0 SE 6 9 3 5 1024.4 1024.1 0.0
14/12:00am 14.3 14.1 8.9 70 2.7 CALM 0 0 0 0 1024.4 1024.1 0.0
 
Date/Time
WST
Temp
°C
App
Temp
°C
Dew
Point
Rel
Hum
%
Delta-T
°C
Wind Press
QNH
hPa
Press
MSL
hPa
Rain
since 9 am
mm
Dir
 
Spd
km/h
Gust
km/h
Spd
kts
Gust
kts
13/11:30pm 14.5 12.6 8.9 69 2.9 ESE 9 13 5 7 1024.6 1024.3 0.0
13/11:00pm 14.7 12.8 9.1 69 2.9 SE 9 15 5 8 1024.8 1024.5 0.0
13/10:30pm 14.9 12.5 8.8 67 3.1 SE 11 17 6 9 1024.8 1024.5 0.0
13/10:00pm 15.4 13.1 9.1 66 3.2 SE 11 20 6 11 1024.9 1024.6 0.0
13/09:30pm 15.7 12.7 9.1 65 3.4 SE 15 20 8 11 1025.0 1024.7 0.0
13/09:00pm 15.8 12.0 9.0 64 3.5 SE 19 26 10 14 1024.9 1024.6 0.0
13/08:30pm 16.0 12.0 9.2 64 3.5 SSE 20 28 11 15 1024.7 1024.4 0.0
13/08:00pm 16.1 12.2 9.3 64 3.5 SSE 20 30 11 16 1024.5 1024.2 0.0
13/07:30pm 16.5 12.2 9.4 63 3.7 SSE 22 32 12 17 1024.2 1023.9 0.0
13/07:00pm 17.1 12.1 9.5 61 4.0 SSE 26 37 14 20 1023.8 1023.5 0.0
13/06:30pm 17.9 12.5 9.5 58 4.4 SSE 28 43 15 23 1023.5 1023.2 0.0
13/06:00pm 18.5 13.4 9.3 55 4.8 SSE 26 39 14 21 1023.1 1022.8 0.0
13/05:30pm 19.2 13.9 9.7 54 5.1 SSE 28 46 15 25 1022.8 1022.5 0.0
13/05:27pm 19.5 14.2 10.0 54 5.1 SSE 28 46 15 25 1022.8 1022.5 0.0
13/05:00pm 20.0 14.8 10.1 53 5.3 SSE 28 44 15 24 1022.7 1022.4 0.0
13/04:30pm 20.6 15.1 10.4 52 5.6 SSE 30 44 16 24 1023.0 1022.7 0.0
13/04:00pm 20.3 14.3 10.1 52 5.5 SSE 32 48 17 26 1023.0 1022.7 0.0
13/03:30pm 20.8 14.7 9.7 49 6.0 SSE 32 46 17 25 1023.0 1022.7 0.0
13/03:00pm 21.0 14.7 9.6 48 6.1 SSE 33 48 18 26 1023.2 1022.9 0.0
13/02:30pm 21.0 15.0 8.6 45 6.5 SSE 30 44 16 24 1023.3 1023.0 0.0
13/02:13pm 20.4 14.9 9.0 48 6.0 SSE 28 46 15 25 1023.2 1022.9 0.0
13/02:00pm 20.6 14.8 9.5 49 5.9 SSE 30 43 16 23 1023.4 1023.1 0.0
13/01:30pm 21.3 15.5 9.5 47 6.3 SSE 30 43 16 23 1023.6 1023.3 0.0
13/01:16pm 20.8 15.5 9.7 49 6.0 SSE 28 48 15 26 1023.7 1023.4 0.0
13/01:00pm 20.5 14.2 8.8 47 6.2 SSE 32 44 17 24 1023.7 1023.4 0.0
13/12:30pm 21.7 16.3 9.6 46 6.5 SSE 28 46 15 25 1024.0 1023.7 0.0
13/12:29pm 21.7 16.2 9.3 45 6.7 SSE 28 46 15 25 1024.0 1023.7 0.0
13/12:00pm 20.7 15.5 9.0 47 6.2 SSE 26 43 14 23 1024.4 1024.1 0.0
13/11:30am 20.4 15.2 8.7 47 6.2 SE 26 39 14 21 1024.6 1024.3 0.0
13/11:00am 19.7 13.9 8.1 47 6.0 SSE 28 41 15 22 1024.9 1024.6 0.0
13/10:30am 19.9 14.3 8.6 48 5.9 SSE 28 41 15 22 1025.0 1024.7 0.0
13/10:00am 19.6 15.1 8.6 49 5.7 SSE 22 37 12 20 1025.2 1024.9 0.0
13/09:30am 18.7 13.9 8.9 53 5.1 SSE 24 32 13 17 1025.2 1024.9 0.0
13/09:00am 18.2 12.8 8.2 52 5.1 SSE 26 37 14 20 1025.2 1024.9 0.0
13/08:30am 18.2 14.1 8.7 54 4.9 SE 20 30 11 16 1025.0 1024.7 0.0
13/08:00am 18.0 14.2 9.1 56 4.6 SSE 19 30 10 16 1024.7 1024.4 0.0
13/07:30am 17.6 14.2 9.0 57 4.5 SSE 17 26 9 14 1024.5 1024.2 0.0
13/07:00am 17.1 14.4 9.0 59 4.2 SSE 13 20 7 11 1024.2 1023.9 0.0
13/06:30am 16.7 14.7 8.7 59 4.1 S 9 15 5 8 1023.9 1023.6 0.0
13/06:00am 16.3 13.9 8.5 60 4.0 SSE 11 15 6 8 1023.7 1023.4 0.0
13/05:30am 16.4 13.2 8.6 60 4.0 SSE 15 19 8 10 1023.4 1023.1 0.0
13/05:00am 16.3 13.2 8.8 61 3.8 SSE 15 20 8 11 1023.1 1022.8 0.0
13/04:30am 16.0 14.1 9.0 63 3.6 S 9 13 5 7 1022.8 1022.5 0.0
13/04:00am 15.8 13.8 8.5 62 3.7 S 9 15 5 8 1022.5 1022.2 0.0
13/03:30am 15.4 12.6 8.6 64 3.5 S 13 17 7 9 1022.4 1022.1 0.0
13/03:00am 15.0 13.2 9.4 69 2.9 S 9 13 5 7 1022.3 1022.0 0.0
13/02:30am 15.1 13.7 9.7 70 2.8 S 7 13 4 7 1022.1 1021.8 0.0
13/02:00am 15.3 13.2 9.9 70 2.8 S 11 13 6 7 1022.0 1021.7 0.0
13/01:30am 15.8 14.2 10.1 69 3.0 S 9 15 5 8 1022.0 1021.7 0.0
13/01:00am 15.8 13.4 10.1 69 3.0 S 13 19 7 10 1022.0 1021.7 0.0
13/12:30am 16.2 13.2 10.7 70 2.9 S 17 22 9 12 1022.0 1021.7 0.0
13/12:00am 16.7 14.3 11.4 71 2.9 S 15 22 8 12 1022.1 1021.8 0.0
 
Date/Time
WST
Temp
°C
App
Temp
°C
Dew
Point
Rel
Hum
%
Delta-T
°C
Wind Press
QNH
hPa
Press
MSL
hPa
Rain
since 9 am
mm
Dir
 
Spd
km/h
Gust
km/h
Spd
kts
Gust
kts
12/11:30pm 17.0 14.5 12.3 74 2.6 SSE 17 26 9 14 1022.0 1021.7 0.0
12/11:00pm 17.2 15.4 13.3 78 2.2 SSE 15 20 8 11 1022.1 1021.8 0.0
12/10:30pm 16.9 15.9 13.4 80 2.0 SSE 11 15 6 8 1022.2 1021.9 0.0
12/10:00pm 17.2 15.8 13.3 78 2.2 S 13 19 7 10 1022.2 1021.9 0.0
12/09:30pm 18.1 16.1 13.8 76 2.5 S 17 22 9 12 1022.0 1021.7 0.0
12/09:00pm 18.0 16.4 13.9 77 2.3 SSE 15 20 8 11 1021.8 1021.5 0.0
12/08:30pm 18.3 16.3 14.0 76 2.5 S 17 26 9 14 1021.6 1021.3 0.0
12/08:00pm 18.7 16.9 14.4 76 2.5 SSE 17 26 9 14 1021.3 1021.0 0.0
12/07:30pm 18.9 17.1 14.4 75 2.6 SSE 17 22 9 12 1020.9 1020.6 0.0
12/07:00pm 19.4 17.3 14.6 74 2.8 S 19 33 10 18 1020.6 1020.3 0.0
12/06:30pm 20.0 17.4 15.0 73 2.9 SSE 22 33 12 18 1020.3 1020.0 0.0
12/06:00pm 20.3 17.9 15.5 74 2.8 SSE 22 33 12 18 1019.9 1019.7 0.0
12/05:30pm 20.9 18.7 15.9 73 3.0 SSE 22 32 12 17 1019.5 1019.3 0.0
12/05:00pm 21.4 19.0 15.5 69 3.5 S 22 32 12 17 1019.4 1019.2 0.0
12/04:30pm 23.6 20.5 14.6 57 5.3 SSE 24 33 13 18 1019.1 1018.9 0.0
12/04:00pm 22.0 19.4 15.8 68 3.7 SSW 24 32 13 17 1019.1 1018.9 0.0
12/03:30pm 22.7 20.9 16.0 66 4.1 SSW 20 30 11 16 1019.0 1018.8 0.0
12/03:00pm 23.0 20.9 15.3 62 4.6 S 20 28 11 15 1018.9 1018.7 0.0
12/02:30pm 25.7 23.8 15.7 54 6.1 SSW 20 32 11 17 1018.8 1018.6 0.0
12/02:00pm 24.1 22.0 14.8 56 5.5 S 19 26 10 14 1019.0 1018.8 0.0
12/01:30pm 23.9 22.4 14.3 55 5.7 S 15 26 8 14 1019.2 1019.0 0.0
12/01:00pm 23.4 21.2 14.4 57 5.3 SSW 19 30 10 16 1019.4 1019.2 0.0
12/12:30pm 23.8 21.8 13.9 54 5.8 S 17 24 9 13 1019.5 1019.3 0.0
12/12:00pm 23.6 21.2 13.8 54 5.7 S 19 30 10 16 1019.6 1019.4 0.0
12/11:30am 22.8 20.3 14.1 58 5.1 SSW 20 28 11 15 1019.9 1019.7 0.0
12/11:00am 22.7 20.3 14.3 59 4.9 SSE 20 30 11 16 1019.9 1019.7 0.0
12/10:30am 22.7 20.8 14.3 59 4.9 S 17 24 9 13 1020.2 1019.9 0.0
12/10:00am 21.5 19.9 13.9 62 4.4 S 15 22 8 12 1020.3 1020.0 0.0
12/09:30am 20.5 18.5 13.9 66 3.8 S 17 22 9 12 1019.9 1019.7 0.0
12/09:00am 20.6 19.5 14.3 67 3.7 SSE 13 19 7 10 1019.7 1019.5 0.2
12/08:30am 19.6 18.0 14.0 70 3.2 SSE 15 22 8 12 1019.6 1019.4 0.2
12/08:00am 19.2 17.6 13.8 71 3.1 S 15 24 8 13 1019.5 1019.3 0.2
12/07:30am 18.9 17.3 14.0 73 2.8 S 15 22 8 12 1019.2 1019.0 0.2
12/07:00am 17.8 17.7 13.9 78 2.2 SSE 7 13 4 7 1019.0 1018.8 0.2
12/06:30am 16.4 16.5 13.9 85 1.4 S 6 11 3 6 1018.7 1018.5 0.2
12/06:00am 15.6 15.3 13.3 86 1.3 S 7 9 4 5 1018.1 1017.9 0.2
12/05:30am 16.0 15.7 13.3 84 1.5 S 7 11 4 6 1017.8 1017.6 0.2
12/05:00am 16.2 16.0 13.5 84 1.5 SSE 7 11 4 6 1017.4 1017.2 0.2
12/04:30am 16.6 16.1 13.7 83 1.6 S 9 13 5 7 1016.9 1016.7 0.2
12/04:00am 16.8 16.3 13.9 83 1.6 S 9 13 5 7 1016.7 1016.5 0.2
12/03:30am 16.8 16.0 13.9 83 1.7 S 11 17 6 9 1016.5 1016.3 0.2
12/03:00am 17.3 16.2 14.2 82 1.8 S 13 17 7 9 1016.3 1016.0 0.2
12/02:30am 17.8 16.3 14.1 79 2.1 SSE 15 20 8 11 1016.4 1016.2 0.2
12/02:00am 17.9 16.4 14.2 79 2.1 S 15 19 8 10 1016.4 1016.2 0.2
12/01:30am 18.1 17.0 14.4 79 2.1 SSE 13 20 7 11 1016.4 1016.2 0.2
12/01:00am 18.8 17.6 15.1 79 2.2 SSE 15 22 8 12 1016.7 1016.5 0.2
12/12:30am 19.1 17.3 15.4 79 2.2 S 19 26 10 14 1016.8 1016.6 0.2
12/12:00am 18.9 18.1 16.0 83 1.7 SSE 15 19 8 10 1016.9 1016.7 0.2
 
Date/Time
WST
Temp
°C
App
Temp
°C
Dew
Point
Rel
Hum
%
Delta-T
°C
Wind Press
QNH
hPa
Press
MSL
hPa
Rain
since 9 am
mm
Dir
 
Spd
km/h
Gust
km/h
Spd
kts
Gust
kts
11/11:30pm 18.7 18.3 16.1 85 1.6 S 13 20 7 11 1016.9 1016.7 0.2
11/11:00pm 18.3 18.0 16.5 89 1.1 S 13 17 7 9 1017.0 1016.8 0.2
11/10:30pm 17.8 18.1 16.1 90 1.0 S 9 17 5 9 1017.1 1016.9 0.2
11/10:00pm 17.8 17.6 15.8 88 1.2 S 11 17 6 9 1017.0 1016.8 0.2
11/09:30pm 18.2 17.7 16.0 87 1.3 S 13 19 7 10 1016.9 1016.7 0.2
11/09:00pm 18.6 17.8 16.0 85 1.5 S 15 20 8 11 1016.8 1016.6 0.2
11/08:30pm 19.4 18.2 16.1 81 2.0 S 17 24 9 13 1016.4 1016.2 0.2
11/08:00pm 19.6 17.9 16.3 81 2.0 SSE 20 30 11 16 1016.1 1015.8 0.2
11/07:30pm 20.1 18.4 16.3 79 2.3 SSE 20 33 11 18 1015.6 1015.3 0.2
11/07:00pm 20.5 18.1 16.5 78 2.4 SSE 24 32 13 17 1015.3 1015.0 0.2
11/06:30pm 21.3 19.2 16.3 73 3.0 SE 22 32 12 17 1014.6 1014.3 0.2
11/06:00pm 22.5 20.3 16.8 70 3.5 SSE 24 32 13 17 1014.0 1013.7 0.2
11/05:30pm 23.5 22.0 16.8 66 4.1 SSE 20 30 11 16 1013.7 1013.4 0.2
11/05:00pm 23.9 21.4 16.2 62 4.7 SSE 24 32 13 17 1013.5 1013.2 0.2
11/04:30pm 24.9 23.0 16.6 60 5.1 SSE 22 32 12 17 1013.2 1012.9 0.2
11/04:00pm 25.5 24.1 16.9 59 5.3 S 20 28 11 15 1013.1 1012.8 0.2
11/03:30pm 26.3 24.4 16.8 56 5.9 SSE 22 30 12 16 1012.9 1012.6 0.2
11/03:00pm 27.6 26.3 16.9 52 6.7 S 19 26 10 14 1012.9 1012.6 0.2
11/02:30pm 28.1 26.7 17.0 51 7.0 SSE 20 30 11 16 1013.0 1012.7 0.2
11/02:00pm 27.7 27.1 17.5 53 6.4 SSE 17 26 9 14 1013.1 1012.8 0.2
11/01:30pm 28.4 27.7 17.3 51 7.0 SSE 17 28 9 15 1013.4 1013.1 0.0
11/01:00pm 28.0 27.1 16.9 51 7.0 SSE 17 26 9 14 1013.7 1013.4 0.0
11/12:30pm 28.3 27.8 16.9 50 7.2 SSE 15 24 8 13 1013.6 1013.3 0.0
11/12:00pm 26.8 25.2 16.1 52 6.6 SE 19 28 10 15 1013.7 1013.4 0.0
11/11:30am 27.0 25.6 16.6 53 6.5 SSE 19 28 10 15 1013.9 1013.6 0.0
11/11:00am 26.9 25.8 17.4 56 6.0 SSE 19 28 10 15 1014.2 1013.9 0.0
11/10:30am 25.2 23.7 16.4 58 5.4 ESE 19 30 10 16 1014.5 1014.2 0.0
11/10:00am 24.2 22.5 16.2 61 4.9 SSE 20 28 11 15 1014.9 1014.6 0.0
11/09:30am 23.6 22.0 16.6 65 4.3 SSE 20 28 11 15 1014.8 1014.5 0.0
11/09:00am 21.7 20.0 16.2 71 3.3 ESE 20 30 11 16 1015.0 1014.7 0.0
11/08:30am 20.5 18.7 15.9 75 2.8 SE 20 30 11 16 1014.9 1014.6 0.0
11/08:00am 18.9 16.7 16.0 83 1.7 SE 22 33 12 18 1015.0 1014.7 0.0

Other Formats:

Comma delimited format used in spreadsheet applications
http://www.bom.gov.au/fwo/IDW60801/IDW60801.95641.axf

JavaScript Object Notation format (JSON) in row-major order
http://www.bom.gov.au/fwo/IDW60801/IDW60801.95641.json